To NAV CANADA Home Page Login to a new session Search on AWWS site Feedback and Comments Disclaimer Vers la page française équivalente Tips FAQ What's new on the site To the Forecasts and Observations / NOTAM section To "File a Flight Plan" website Publications and other links Update of the User's profile FIC Telephone Numbers My Weather Data Folder Route Weather Data Regional Weather Data Local Weather Data To the Forecasts and Observations / NOTAM section
Request Generated 03/02/2015 at 23:06:28 UTC . Weather information available at that time is displayed.

METAR/TAF

HALIFAX/STANFIELD INTL/NS    

METAR CYHZ 022300Z 31013G19KT 2SM -SN BLSN BKN013 M05/M06 A2954 RMK
SC7 SLP012=
SPECI CYHZ 022247Z 30017G22KT 2SM -SN BLSN OVC013 M04/M06 A2954 RMK
SC8 SLP009=
METAR CYHZ 022200Z 31017G24KT 3SM -SN BLSN OVC012 M04/M06 A2951 RMK
SC8 SLP000=
METAR CYHZ 022100Z 30017G24KT 2SM -SN BLSN OVC011 M04/M05 A2948 RMK
SC8 /S01/ SLP990=

TAF CYHZ 022038Z 0221/0318 30018G28KT 2SM -SHSN BLSN OVC020 TEMPO
0221/0224 6SM -SHSN OVC025
FM030000 30018G28KT 6SM -SHSN BKN025 TEMPO 0300/0303 4SM -SHSN
BLSN
FM030300 30018G28KT 6SM BLSN FEW020 SCT080
FM031300 31018G28KT P6SM FEW040
RMK NXT FCST BY 030000Z=
Your time UTC time
Weather data provided by Environment Canada and NAV CANADA